createdAt,value
2019-02-14T00:00:11.216Z,0
2019-02-14T00:01:19.260Z,0
2019-02-14T00:02:27.316Z,0
2019-02-14T00:03:35.375Z,0
2019-02-14T00:04:43.415Z,0
2019-02-14T00:05:51.448Z,0
2019-02-14T00:06:59.527Z,0
2019-02-14T00:08:07.582Z,0
2019-02-14T00:09:15.683Z,0
2019-02-14T00:10:23.684Z,0
2019-02-14T00:11:31.709Z,0
2019-02-14T00:12:39.789Z,0
2019-02-14T00:13:47.847Z,0
2019-02-14T00:14:55.901Z,0
2019-02-14T00:16:03.938Z,0
2019-02-14T00:17:11.973Z,0
2019-02-14T00:18:20.051Z,0
2019-02-14T00:19:28.085Z,0
2019-02-14T00:20:36.151Z,0
2019-02-14T00:21:44.208Z,0
2019-02-14T00:22:52.460Z,0
2019-02-14T00:24:00.309Z,0
2019-02-14T00:25:08.360Z,0
2019-02-14T00:26:16.413Z,0
2019-02-14T00:27:24.468Z,0
2019-02-14T00:28:32.507Z,0
2019-02-14T00:29:40.572Z,0
2019-02-14T00:30:48.619Z,0
2019-02-14T00:31:56.673Z,0
2019-02-14T00:33:04.765Z,0
2019-02-14T00:34:12.795Z,0
2019-02-14T00:35:25.007Z,0
2019-02-14T00:36:28.890Z,0
2019-02-14T00:37:36.936Z,0
2019-02-14T00:38:44.994Z,0
2019-02-14T00:39:53.035Z,0
2019-02-14T00:41:01.097Z,0
2019-02-14T00:42:09.141Z,0
2019-02-14T00:43:17.190Z,0
2019-02-14T00:44:25.288Z,0
2019-02-14T00:45:34.674Z,0
2019-02-14T00:46:41.341Z,0
2019-02-14T00:47:49.397Z,0
2019-02-14T00:48:57.453Z,0
2019-02-14T00:50:05.507Z,0
2019-02-14T00:51:13.559Z,0
2019-02-14T00:52:21.612Z,0
2019-02-14T00:53:29.660Z,0
2019-02-14T00:54:37.717Z,0
2019-02-14T00:55:45.808Z,0
2019-02-14T00:56:53.822Z,0
2019-02-14T00:58:01.858Z,0
2019-02-14T00:59:09.916Z,0
2019-02-14T01:00:17.980Z,0
2019-02-14T01:01:26.037Z,0
2019-02-14T01:02:34.089Z,0
2019-02-14T01:03:42.105Z,0
2019-02-14T01:04:50.190Z,0
2019-02-14T01:05:58.250Z,0
2019-02-14T01:07:06.290Z,0
2019-02-14T01:08:14.341Z,0
2019-02-14T01:09:22.380Z,0
2019-02-14T01:10:30.443Z,0
2019-02-14T01:11:38.498Z,0
2019-02-14T01:12:46.550Z,0
2019-02-14T01:13:54.608Z,0
2019-02-14T01:15:02.660Z,0
2019-02-14T01:16:10.703Z,0
2019-02-14T01:17:18.799Z,0
2019-02-14T01:18:26.816Z,0
2019-02-14T01:19:34.868Z,0
2019-02-14T01:20:42.915Z,0
2019-02-14T01:21:51.018Z,0
2019-02-14T01:22:59.020Z,0
2019-02-14T01:24:07.062Z,0
2019-02-14T01:25:15.124Z,0
2019-02-14T01:26:23.172Z,0
2019-02-14T01:27:31.249Z,0
2019-02-14T01:28:39.305Z,0
2019-02-14T01:29:47.338Z,0
2019-02-14T01:30:55.383Z,0
2019-02-14T01:32:03.421Z,0
2019-02-14T01:33:11.465Z,0
2019-02-14T01:34:19.543Z,0
2019-02-14T01:35:27.595Z,0
2019-02-14T01:36:35.644Z,0
2019-02-14T01:37:43.694Z,0
2019-02-14T01:38:51.751Z,0
2019-02-14T01:39:59.794Z,0
2019-02-14T01:41:07.849Z,0
2019-02-14T01:42:15.897Z,0
2019-02-14T01:43:23.964Z,0
2019-02-14T01:44:31.973Z,0
2019-02-14T01:45:40.058Z,0
2019-02-14T01:46:48.105Z,0
2019-02-14T01:47:56.155Z,0
2019-02-14T01:49:04.238Z,0
2019-02-14T01:50:12.233Z,0
2019-02-14T01:51:20.314Z,0
2019-02-14T01:52:28.359Z,0
2019-02-14T01:53:36.424Z,0
2019-02-14T01:54:44.843Z,0
2019-02-14T01:55:52.586Z,0
2019-02-14T01:57:00.569Z,0
2019-02-14T01:58:08.621Z,0
2019-02-14T01:59:16.709Z,0
2019-02-14T02:00:24.728Z,0
2019-02-14T02:01:32.807Z,0
2019-02-14T02:02:40.843Z,0
2019-02-14T02:03:48.881Z,0
2019-02-14T02:04:56.963Z,0
2019-02-14T02:06:04.986Z,0
2019-02-14T02:07:13.047Z,0
2019-02-14T02:08:21.084Z,0
2019-02-14T02:09:29.139Z,0
2019-02-14T02:10:37.191Z,0
2019-02-14T02:11:45.245Z,0
2019-02-14T02:12:53.311Z,0
2019-02-14T02:14:01.347Z,0
2019-02-14T02:15:09.391Z,0
2019-02-14T02:16:17.452Z,0
2019-02-14T02:17:25.498Z,0
2019-02-14T02:18:33.561Z,0
2019-02-14T02:19:41.609Z,0
2019-02-14T02:20:49.653Z,0
2019-02-14T02:21:57.719Z,0
2019-02-14T02:23:05.756Z,0
2019-02-14T02:24:13.829Z,0
2019-02-14T02:25:21.855Z,0
2019-02-14T02:26:29.915Z,0
2019-02-14T02:27:37.961Z,0
2019-02-14T02:28:46.015Z,0
2019-02-14T02:29:54.112Z,0
2019-02-14T02:31:02.148Z,0
2019-02-14T02:32:10.178Z,0
2019-02-14T02:33:18.230Z,0
2019-02-14T02:34:26.286Z,0
2019-02-14T02:35:34.340Z,0
2019-02-14T02:36:42.370Z,0
2019-02-14T02:37:50.427Z,0
2019-02-14T02:38:58.488Z,0
2019-02-14T02:40:06.565Z,0
2019-02-14T02:41:14.599Z,0
2019-02-14T02:42:22.645Z,0
2019-02-14T02:43:30.693Z,0
2019-02-14T02:44:38.754Z,0
2019-02-14T02:45:46.805Z,0
2019-02-14T02:46:54.851Z,0
2019-02-14T02:48:02.896Z,0
2019-02-14T02:49:10.958Z,0
2019-02-14T02:50:19.005Z,0
2019-02-14T02:51:27.040Z,0
2019-02-14T02:52:35.144Z,0
2019-02-14T02:53:43.162Z,0
2019-02-14T02:54:51.206Z,0
2019-02-14T02:55:59.256Z,0
2019-02-14T02:57:07.320Z,0
2019-02-14T02:58:15.352Z,0
2019-02-14T02:59:23.412Z,0
2019-02-14T03:00:31.482Z,0
2019-02-14T03:01:39.523Z,0
2019-02-14T03:02:47.601Z,0
2019-02-14T03:03:55.614Z,0
2019-02-14T03:05:03.680Z,0
2019-02-14T03:06:11.706Z,0
2019-02-14T03:07:19.794Z,0
2019-02-14T03:08:27.833Z,0
2019-02-14T03:09:35.879Z,0
2019-02-14T03:10:43.944Z,0
2019-02-14T03:11:51.964Z,0
2019-02-14T03:13:00.074Z,0
2019-02-14T03:14:08.094Z,0
2019-02-14T03:15:16.125Z,0
2019-02-14T03:16:24.186Z,0
2019-02-14T03:17:32.216Z,0
2019-02-14T03:18:40.298Z,0
2019-02-14T03:19:48.341Z,0
2019-02-14T03:20:56.404Z,0
2019-02-14T03:22:04.447Z,0
2019-02-14T03:23:12.536Z,0
2019-02-14T03:24:20.557Z,0
2019-02-14T03:25:28.608Z,0
2019-02-14T03:26:36.657Z,0
2019-02-14T03:27:44.703Z,0
2019-02-14T03:28:52.753Z,0
2019-02-14T03:30:00.825Z,0
2019-02-14T03:31:08.858Z,0
2019-02-14T03:32:16.926Z,0
2019-02-14T03:33:25.006Z,0
2019-02-14T03:34:33.020Z,0
2019-02-14T03:35:41.068Z,0
2019-02-14T03:36:49.130Z,0
2019-02-14T03:37:57.174Z,0
2019-02-14T03:39:05.220Z,0
2019-02-14T03:40:13.275Z,0
2019-02-14T03:41:21.313Z,0
2019-02-14T03:42:29.405Z,0
2019-02-14T03:43:37.458Z,0
2019-02-14T03:44:45.485Z,0
2019-02-14T03:45:53.543Z,0
2019-02-14T03:47:01.551Z,0
2019-02-14T03:48:09.647Z,0
2019-02-14T03:49:17.692Z,0
2019-02-14T03:50:25.738Z,0
2019-02-14T03:51:33.784Z,0
2019-02-14T03:52:41.818Z,0
2019-02-14T03:53:49.885Z,0
2019-02-14T03:54:57.985Z,0
2019-02-14T03:56:06.007Z,0
2019-02-14T03:57:14.043Z,0
2019-02-14T03:58:22.089Z,0
2019-02-14T03:59:30.147Z,0
2019-02-14T04:00:38.201Z,0
2019-02-14T04:01:46.248Z,0
2019-02-14T04:02:54.300Z,0
2019-02-14T04:04:02.333Z,0
2019-02-14T04:05:10.404Z,0
2019-02-14T04:06:18.458Z,0
2019-02-14T04:07:26.505Z,0
2019-02-14T04:08:34.551Z,0
2019-02-14T04:09:42.606Z,0
2019-02-14T04:10:50.661Z,0
2019-02-14T04:11:58.727Z,0
2019-02-14T04:13:06.766Z,0
2019-02-14T04:14:14.822Z,0
2019-02-14T04:15:22.872Z,0
2019-02-14T04:16:30.913Z,0
2019-02-14T04:17:38.968Z,0
2019-02-14T04:18:47.031Z,0
2019-02-14T04:19:55.078Z,0
2019-02-14T04:21:03.128Z,0
2019-02-14T04:22:11.180Z,0
2019-02-14T04:23:19.218Z,0
2019-02-14T04:24:27.314Z,0
2019-02-14T04:25:35.363Z,0
2019-02-14T04:26:43.371Z,0
2019-02-14T04:27:51.427Z,0
2019-02-14T04:28:59.482Z,0
2019-02-14T04:30:07.531Z,0
2019-02-14T04:31:15.580Z,0
2019-02-14T04:32:23.634Z,0
2019-02-14T04:33:31.693Z,0
2019-02-14T04:34:39.742Z,0
2019-02-14T04:35:47.833Z,0
2019-02-14T04:36:55.940Z,0
2019-02-14T04:38:03.896Z,0
2019-02-14T04:39:11.908Z,0
2019-02-14T04:40:19.995Z,0
2019-02-14T04:41:28.049Z,0
2019-02-14T04:42:36.081Z,0
2019-02-14T04:43:44.150Z,0
2019-02-14T04:44:52.179Z,0
2019-02-14T04:46:00.275Z,0
2019-02-14T04:47:08.297Z,0
2019-02-14T04:48:16.351Z,0
2019-02-14T04:49:24.406Z,0
2019-02-14T04:50:32.450Z,0
2019-02-14T04:51:40.499Z,0
2019-02-14T04:52:48.550Z,0
2019-02-14T04:53:56.600Z,0
2019-02-14T04:55:04.658Z,0
2019-02-14T04:56:12.746Z,0
2019-02-14T04:57:20.763Z,0
2019-02-14T04:58:28.818Z,0
2019-02-14T04:59:36.878Z,0
2019-02-14T05:00:44.917Z,0
2019-02-14T05:01:52.979Z,0
2019-02-14T05:03:01.021Z,0
2019-02-14T05:04:09.060Z,0
2019-02-14T05:05:17.112Z,0
2019-02-14T05:06:25.198Z,0
2019-02-14T05:07:33.258Z,0
2019-02-14T05:08:41.260Z,0
2019-02-14T05:09:49.321Z,0
2019-02-14T05:10:57.370Z,0
2019-02-14T05:12:05.429Z,0
2019-02-14T05:13:13.475Z,0
2019-02-14T05:14:21.510Z,0
2019-02-14T05:15:29.581Z,0
2019-02-14T05:16:37.643Z,0
2019-02-14T05:17:45.715Z,0
2019-02-14T05:18:53.743Z,0
2019-02-14T05:20:01.757Z,0
2019-02-14T05:21:09.846Z,0
2019-02-14T05:22:17.892Z,0
2019-02-14T05:23:25.930Z,0
2019-02-14T05:24:33.985Z,0
2019-02-14T05:25:42.014Z,0
2019-02-14T05:26:50.086Z,0
2019-02-14T05:27:58.148Z,0
2019-02-14T05:29:06.190Z,0
2019-02-14T05:30:14.235Z,0
2019-02-14T05:31:22.278Z,0
2019-02-14T05:32:30.344Z,0
2019-02-14T05:33:38.391Z,0
2019-02-14T05:34:46.442Z,0
2019-02-14T05:35:54.500Z,0
2019-02-14T05:37:02.546Z,0
2019-02-14T05:38:10.614Z,0
2019-02-14T05:39:18.659Z,0
2019-02-14T05:40:26.697Z,0
2019-02-14T05:41:34.748Z,0
2019-02-14T05:42:42.808Z,0
2019-02-14T05:43:50.866Z,0
2019-02-14T05:44:58.906Z,0
2019-02-14T05:46:06.949Z,0
2019-02-14T05:47:15.014Z,0
2019-02-14T05:48:23.064Z,0
2019-02-14T05:49:31.110Z,0
2019-02-14T05:50:39.155Z,0
2019-02-14T05:51:47.224Z,0
2019-02-14T05:52:55.256Z,0
2019-02-14T05:54:03.307Z,0
2019-02-14T05:55:11.361Z,0
2019-02-14T05:56:19.432Z,0
2019-02-14T05:57:27.507Z,0
2019-02-14T05:58:35.533Z,0
2019-02-14T05:59:43.574Z,0
2019-02-14T06:00:51.593Z,0
2019-02-14T06:01:59.685Z,0
2019-02-14T06:03:07.731Z,0
2019-02-14T06:04:15.776Z,4
2019-02-14T06:05:23.825Z,4
2019-02-14T06:06:31.885Z,4
2019-02-14T06:07:39.918Z,4
2019-02-14T06:08:47.988Z,4
2019-02-14T06:09:56.070Z,4
2019-02-14T06:11:04.576Z,8
2019-02-14T06:12:12.115Z,12
2019-02-14T06:13:20.191Z,12
2019-02-14T06:14:28.231Z,16
2019-02-14T06:15:36.398Z,16
2019-02-14T06:16:44.334Z,20
2019-02-14T06:17:52.390Z,28
2019-02-14T06:19:00.451Z,32
2019-02-14T06:20:08.525Z,40
2019-02-14T06:21:16.538Z,52
2019-02-14T06:22:24.601Z,60
2019-02-14T06:23:32.639Z,72
2019-02-14T06:24:41.687Z,80
2019-02-14T06:25:49.752Z,96
2019-02-14T06:27:40.083Z,108
2019-02-14T06:28:09.090Z,128
2019-02-14T06:29:14.898Z,148
2019-02-14T06:30:31.172Z,168
2019-02-14T06:31:32.039Z,184
2019-02-14T06:32:46.371Z,208
2019-02-14T06:33:48.105Z,232
2019-02-14T06:34:57.490Z,260
2019-02-14T06:36:05.200Z,292
2019-02-14T06:37:13.249Z,328
2019-02-14T06:38:22.319Z,368
2019-02-14T06:39:30.360Z,408
2019-02-14T06:41:47.443Z,484
2019-02-14T06:42:55.499Z,524
2019-02-14T06:44:03.563Z,572
2019-02-14T06:45:29.104Z,612
2019-02-14T06:46:19.665Z,648
2019-02-14T06:47:27.720Z,684
2019-02-14T06:48:35.764Z,724
2019-02-14T06:49:43.803Z,772
2019-02-14T06:50:51.854Z,816
2019-02-14T06:51:59.921Z,856
2019-02-14T06:53:08.526Z,904
2019-02-14T06:54:16.025Z,948
2019-02-14T06:55:24.068Z,996
2019-02-14T06:56:32.145Z,1040
2019-02-14T06:57:40.169Z,1068
2019-02-14T06:58:48.200Z,1096
2019-02-14T06:59:56.262Z,1136
2019-02-14T07:01:04.325Z,1172
2019-02-14T07:02:12.423Z,1200
2019-02-14T07:03:20.752Z,1236
2019-02-14T07:04:28.530Z,1276
2019-02-14T07:05:36.523Z,1320
2019-02-14T07:06:44.577Z,1372
2019-02-14T07:07:52.908Z,1420
2019-02-14T07:09:00.689Z,1476
2019-02-14T07:10:08.730Z,1548
2019-02-14T07:11:17.175Z,1612
2019-02-14T07:12:24.860Z,1696
2019-02-14T07:13:32.890Z,1788
2019-02-14T07:14:40.944Z,1940
2019-02-14T07:15:48.997Z,2124
2019-02-14T07:16:57.040Z,2260
2019-02-14T07:18:05.088Z,2384
2019-02-14T07:19:13.148Z,2552
2019-02-14T07:20:21.190Z,2676
2019-02-14T07:21:29.285Z,2632
2019-02-14T07:22:37.291Z,2780
2019-02-14T07:23:45.347Z,2872
2019-02-14T07:24:53.407Z,2920
2019-02-14T07:26:01.439Z,2876
2019-02-14T07:27:09.496Z,2860
2019-02-14T07:28:17.679Z,2872
2019-02-14T07:29:25.612Z,2848
2019-02-14T07:30:33.661Z,2832
2019-02-14T07:31:41.704Z,2840
2019-02-14T07:32:49.780Z,2936
2019-02-14T07:33:58.609Z,2972
2019-02-14T07:35:05.878Z,2964
2019-02-14T07:36:13.928Z,3300
2019-02-14T07:37:26.761Z,3968
2019-02-14T07:38:30.032Z,3788
2019-02-14T07:39:38.072Z,3928
2019-02-14T07:40:46.127Z,4372
2019-02-14T07:41:54.191Z,4628
2019-02-14T07:43:02.307Z,4500
2019-02-14T07:44:10.452Z,3924
2019-02-14T07:45:18.427Z,3456
2019-02-14T07:46:26.450Z,3108
2019-02-14T07:47:34.446Z,3056
2019-02-14T07:48:42.811Z,3196
2019-02-14T07:49:50.546Z,3464
2019-02-14T07:50:58.600Z,3964
2019-02-14T07:52:06.673Z,4036
2019-02-14T07:53:14.698Z,3988
2019-02-14T07:54:23.041Z,3612
2019-02-14T07:55:31.283Z,3140
2019-02-14T07:56:38.995Z,3072
2019-02-14T07:57:46.997Z,3132
2019-02-14T07:58:55.105Z,3208
2019-02-14T08:00:03.007Z,3232
2019-02-14T08:01:11.069Z,3252
2019-02-14T08:02:19.148Z,3312
2019-02-14T08:03:27.544Z,3340
2019-02-14T08:04:35.291Z,3384
2019-02-14T08:05:43.383Z,3444
2019-02-14T08:06:51.555Z,3464
2019-02-14T08:08:00.656Z,3568
2019-02-14T08:09:08.319Z,3644
2019-02-14T08:10:16.235Z,3696
2019-02-14T08:11:23.530Z,3752
2019-02-14T08:12:31.571Z,3796
2019-02-14T08:13:39.767Z,3812
2019-02-14T08:14:48.010Z,3796
2019-02-14T08:15:55.902Z,3856
2019-02-14T08:17:04.063Z,3860
2019-02-14T08:18:12.194Z,3892
2019-02-14T08:19:20.371Z,3868
2019-02-14T08:20:27.964Z,3812
2019-02-14T08:21:36.006Z,3760
2019-02-14T08:22:44.063Z,3716
2019-02-14T08:23:52.098Z,3676
2019-02-14T08:25:00.293Z,3640
2019-02-14T08:26:10.731Z,3644
2019-02-14T08:27:16.370Z,3644
2019-02-14T08:28:24.332Z,3672
2019-02-14T08:29:32.799Z,3716
2019-02-14T08:30:40.558Z,3692
2019-02-14T08:31:48.517Z,3788
2019-02-14T08:32:56.551Z,3816
2019-02-14T08:34:04.584Z,3868
2019-02-14T08:35:12.658Z,3848
2019-02-14T08:36:20.708Z,3824
2019-02-14T08:37:28.856Z,3948
2019-02-14T08:38:36.802Z,3964
2019-02-14T08:39:44.873Z,3976
2019-02-14T08:40:52.910Z,3968
2019-02-14T08:42:00.985Z,3944
2019-02-14T08:43:08.998Z,3900
2019-02-14T08:44:17.086Z,3864
2019-02-14T08:45:25.137Z,3940
2019-02-14T08:46:33.183Z,3932
2019-02-14T08:47:41.236Z,3928
2019-02-14T08:48:49.299Z,3948
2019-02-14T08:49:57.415Z,3980
2019-02-14T08:51:05.387Z,3984
2019-02-14T08:52:13.458Z,3896
2019-02-14T08:53:21.492Z,3960
2019-02-14T08:54:29.554Z,4080
2019-02-14T08:55:37.609Z,4292
2019-02-14T08:56:45.684Z,4316
2019-02-14T08:57:53.710Z,4332
2019-02-14T08:59:01.749Z,4344
2019-02-14T09:00:09.875Z,4328
2019-02-14T09:01:17.887Z,4328
2019-02-14T09:02:25.940Z,4316
2019-02-14T09:03:33.986Z,4308
2019-02-14T09:04:42.033Z,4272
2019-02-14T09:05:50.090Z,4232
2019-02-14T09:06:58.181Z,4212
2019-02-14T09:08:06.190Z,4200
2019-02-14T09:09:14.285Z,4144
2019-02-14T09:10:22.313Z,4096
2019-02-14T09:11:30.431Z,4036
2019-02-14T09:12:38.466Z,4004
2019-02-14T09:13:46.482Z,3952
2019-02-14T09:14:54.546Z,3888
2019-02-14T09:16:02.595Z,3820
2019-02-14T09:17:10.675Z,3796
2019-02-14T09:18:18.693Z,3708
2019-02-14T09:19:26.765Z,3712
2019-02-14T09:20:34.823Z,3692
2019-02-14T09:21:42.878Z,3628
2019-02-14T09:22:50.927Z,3596
2019-02-14T09:23:58.990Z,3536
2019-02-14T09:25:07.044Z,3500
2019-02-14T09:26:15.099Z,3440
2019-02-14T09:27:23.148Z,3392
2019-02-14T09:28:31.648Z,3312
2019-02-14T09:29:39.262Z,3272
2019-02-14T09:30:47.311Z,3208
2019-02-14T09:31:55.381Z,3064
2019-02-14T09:33:03.434Z,3100
2019-02-14T09:34:11.497Z,3132
2019-02-14T09:35:19.849Z,3108
2019-02-14T09:36:27.649Z,3104
2019-02-14T09:37:35.653Z,3060
2019-02-14T09:38:43.709Z,3064
2019-02-14T09:39:51.743Z,3080
2019-02-14T09:40:59.804Z,3092
2019-02-14T09:42:08.046Z,3112
2019-02-14T09:43:15.936Z,3152
2019-02-14T09:44:24.392Z,3160
2019-02-14T09:45:32.297Z,3184
2019-02-14T09:46:40.091Z,3200
2019-02-14T09:47:48.221Z,3212
2019-02-14T09:48:56.219Z,3228
2019-02-14T09:50:04.283Z,3240
2019-02-14T09:51:12.401Z,3248
2019-02-14T09:52:20.398Z,3256
2019-02-14T09:53:28.481Z,3264
2019-02-14T09:54:38.201Z,3280
2019-02-14T09:55:44.872Z,3292
2019-02-14T09:56:52.771Z,3308
2019-02-14T09:58:00.661Z,3320
2019-02-14T09:59:08.712Z,3328
2019-02-14T10:00:16.778Z,3340
2019-02-14T10:01:24.862Z,3356
2019-02-14T10:02:32.883Z,3372
2019-02-14T10:03:40.945Z,3384
2019-02-14T10:04:48.998Z,3380
2019-02-14T10:05:57.066Z,3372
2019-02-14T10:07:05.106Z,3340
2019-02-14T10:08:13.294Z,3292
2019-02-14T10:09:21.331Z,3252
2019-02-14T10:10:29.635Z,3228
2019-02-14T10:11:37.345Z,3204
2019-02-14T10:12:45.398Z,3184
2019-02-14T10:13:53.437Z,3172
2019-02-14T10:15:01.500Z,3140
2019-02-14T10:16:09.560Z,3164
2019-02-14T10:17:22.129Z,3156
2019-02-14T10:18:25.687Z,3144
2019-02-14T10:19:34.036Z,3132
2019-02-14T10:20:42.170Z,3116
2019-02-14T10:21:49.962Z,3120
2019-02-14T10:22:58.214Z,3116
2019-02-14T10:24:06.109Z,3108
2019-02-14T10:25:14.018Z,3108
2019-02-14T10:26:22.448Z,3104
2019-02-14T10:27:30.197Z,3100
2019-02-14T10:28:38.243Z,3100
2019-02-14T10:29:46.237Z,3092
2019-02-14T10:30:54.528Z,3088
2019-02-14T10:32:02.350Z,3084
2019-02-14T10:33:10.456Z,3084
2019-02-14T10:34:20.327Z,3076
2019-02-14T10:35:26.526Z,3080
2019-02-14T10:36:34.603Z,3084
2019-02-14T10:37:42.814Z,3080
2019-02-14T10:38:50.815Z,3080
2019-02-14T10:39:58.753Z,3080
2019-02-14T10:41:06.943Z,3076
2019-02-14T10:42:14.871Z,3084
2019-02-14T10:43:22.967Z,3080
2019-02-14T10:44:30.988Z,3076
2019-02-14T10:45:39.625Z,3068
2019-02-14T10:46:47.091Z,3068
2019-02-14T10:47:55.150Z,3076
2019-02-14T10:49:03.316Z,3072
2019-02-14T10:50:11.264Z,3068
2019-02-14T10:51:19.336Z,3072
2019-02-14T10:52:27.389Z,3080
2019-02-14T10:53:35.433Z,3084
2019-02-14T10:54:43.493Z,3076
2019-02-14T10:55:51.552Z,3084
2019-02-14T10:56:59.609Z,3088
2019-02-14T10:58:07.677Z,3096
2019-02-14T10:59:15.769Z,3104
2019-02-14T11:00:23.790Z,3112
2019-02-14T11:01:31.835Z,3112
2019-02-14T11:02:39.904Z,3112
2019-02-14T11:03:47.957Z,3104
2019-02-14T11:04:56.036Z,3104
2019-02-14T11:06:04.093Z,3100
2019-02-14T11:07:13.571Z,3100
2019-02-14T11:08:20.187Z,3108
2019-02-14T11:09:28.244Z,3104
2019-02-14T11:10:36.318Z,3108
2019-02-14T11:11:44.604Z,3108
2019-02-14T11:12:52.432Z,3108
2019-02-14T11:14:00.705Z,3108
2019-02-14T11:15:09.077Z,3112
2019-02-14T11:16:16.611Z,3124
2019-02-14T11:17:24.677Z,3136
2019-02-14T11:18:32.762Z,3148
2019-02-14T11:19:40.837Z,3156
2019-02-14T11:20:49.390Z,3184
2019-02-14T11:21:57.276Z,3204
2019-02-14T11:23:04.964Z,3216
2019-02-14T11:24:16.115Z,3232
2019-02-14T11:25:21.090Z,3252
2019-02-14T11:26:29.136Z,3248
2019-02-14T11:27:37.183Z,3252
2019-02-14T11:28:45.249Z,3260
2019-02-14T11:29:53.295Z,3276
2019-02-14T11:31:01.375Z,3292
2019-02-14T11:32:09.416Z,3300
2019-02-14T11:33:17.498Z,3288
2019-02-14T11:34:25.549Z,3268
2019-02-14T11:35:33.603Z,3236
2019-02-14T11:36:41.668Z,3224
2019-02-14T11:37:49.719Z,3192
2019-02-14T11:38:58.428Z,3200
2019-02-14T11:40:05.846Z,3240
2019-02-14T11:41:13.901Z,3248
2019-02-14T11:42:22.032Z,3256
2019-02-14T11:43:30.036Z,3260
2019-02-14T11:44:39.915Z,3292
2019-02-14T11:45:46.131Z,3324
2019-02-14T11:46:54.208Z,3352
2019-02-14T11:48:02.263Z,3360
2019-02-14T11:49:10.337Z,3352
2019-02-14T11:50:18.389Z,3364
2019-02-14T11:51:26.428Z,3376
2019-02-14T11:52:34.677Z,3392
2019-02-14T11:53:42.559Z,3404
2019-02-14T11:54:50.750Z,3400
2019-02-14T11:55:58.695Z,3340
2019-02-14T11:57:06.760Z,3416
2019-02-14T11:58:14.843Z,3444
2019-02-14T11:59:22.872Z,3440
2019-02-14T12:00:30.918Z,3412
2019-02-14T12:01:38.999Z,3388
2019-02-14T12:02:54.965Z,3368
2019-02-14T12:03:55.116Z,3356
2019-02-14T12:05:03.164Z,3356
2019-02-14T12:06:17.291Z,3356
2019-02-14T12:07:19.305Z,3340
2019-02-14T12:08:27.343Z,3312
2019-02-14T12:09:35.461Z,3264
2019-02-14T12:10:43.779Z,3208
2019-02-14T12:11:51.546Z,3056
2019-02-14T12:12:59.597Z,3164
2019-02-14T12:14:07.630Z,3252
2019-02-14T12:15:15.703Z,3292
2019-02-14T12:16:23.755Z,3364
2019-02-14T12:17:31.790Z,3412
2019-02-14T12:18:39.904Z,3436
2019-02-14T12:19:48.883Z,3504
2019-02-14T12:20:56.001Z,3532
2019-02-14T12:22:04.049Z,3568
2019-02-14T12:23:12.102Z,3568
2019-02-14T12:24:20.194Z,3576
2019-02-14T12:25:28.214Z,3560
2019-02-14T12:26:36.295Z,3596
2019-02-14T12:27:44.343Z,3604
2019-02-14T12:28:52.412Z,3648
2019-02-14T12:30:00.491Z,3700
2019-02-14T12:31:08.519Z,3740
2019-02-14T12:32:16.574Z,3760
2019-02-14T12:33:24.634Z,3720
2019-02-14T12:34:32.752Z,3680
2019-02-14T12:35:40.755Z,3588
2019-02-14T12:36:48.825Z,3660
2019-02-14T12:37:56.872Z,3716
2019-02-14T12:39:09.027Z,3752
2019-02-14T12:40:13.001Z,3772
2019-02-14T12:41:21.063Z,3776
2019-02-14T12:42:29.133Z,3744
2019-02-14T12:43:37.198Z,3720
2019-02-14T12:44:45.245Z,3696
2019-02-14T12:45:53.327Z,3672
2019-02-14T12:47:01.362Z,3652
2019-02-14T12:48:09.426Z,3652
2019-02-14T12:49:17.489Z,3656
2019-02-14T12:50:25.541Z,3672
2019-02-14T12:51:33.605Z,3712
2019-02-14T12:52:41.649Z,3772
2019-02-14T12:53:49.738Z,3816
2019-02-14T12:54:57.796Z,3844
2019-02-14T12:56:05.889Z,3896
2019-02-14T12:57:13.908Z,3968
2019-02-14T12:58:21.956Z,4040
2019-02-14T12:59:30.030Z,4084
2019-02-14T13:00:38.089Z,4020
2019-02-14T13:01:46.151Z,4160
2019-02-14T13:02:54.204Z,4324
2019-02-14T13:04:02.284Z,4400
2019-02-14T13:05:10.339Z,4380
2019-02-14T13:06:18.429Z,4364
2019-02-14T13:07:26.445Z,4420
2019-02-14T13:08:34.508Z,4576
2019-02-14T13:09:42.548Z,4612
2019-02-14T13:10:50.624Z,4676
2019-02-14T13:11:58.696Z,4744
2019-02-14T13:13:06.746Z,4816
2019-02-14T13:14:14.810Z,4936
2019-02-14T13:15:22.875Z,5072
2019-02-14T13:16:30.981Z,5216
2019-02-14T13:17:39.038Z,5364
2019-02-14T13:18:47.050Z,5524
2019-02-14T13:19:56.862Z,5628
2019-02-14T13:21:03.168Z,5688
2019-02-14T13:22:11.232Z,5916
2019-02-14T13:23:19.298Z,6052
2019-02-14T13:24:27.354Z,6200
2019-02-14T13:25:35.407Z,6312
2019-02-14T13:26:43.481Z,6404
2019-02-14T13:27:51.524Z,6440
2019-02-14T13:28:59.599Z,6412
2019-02-14T13:30:07.662Z,6364
2019-02-14T13:31:15.701Z,6228
2019-02-14T13:32:23.794Z,6008
2019-02-14T13:33:31.818Z,5808
2019-02-14T13:34:39.903Z,5748
2019-02-14T13:35:47.949Z,5656
2019-02-14T13:37:01.502Z,5556
2019-02-14T13:38:04.126Z,5484
2019-02-14T13:39:12.122Z,5392
2019-02-14T13:40:20.204Z,5300
2019-02-14T13:41:31.040Z,5152
2019-02-14T13:42:36.324Z,5028
2019-02-14T13:43:44.391Z,4996
2019-02-14T13:44:52.440Z,4976
2019-02-14T13:46:00.523Z,4932
2019-02-14T13:47:08.567Z,4900
2019-02-14T13:48:17.428Z,4928
2019-02-14T13:49:24.683Z,4964
2019-02-14T13:50:32.764Z,5036
2019-02-14T13:51:40.807Z,5200
2019-02-14T13:52:48.878Z,5328
2019-02-14T13:53:56.939Z,5412
2019-02-14T13:55:04.993Z,5476
2019-02-14T13:56:13.114Z,5492
2019-02-14T13:57:21.104Z,5512
2019-02-14T13:58:29.187Z,5548
2019-02-14T13:59:37.285Z,5576
2019-02-14T14:00:45.302Z,5632
2019-02-14T14:01:53.385Z,5600
2019-02-14T14:03:01.479Z,5584
2019-02-14T14:04:09.493Z,5508
2019-02-14T14:05:17.593Z,5428
2019-02-14T14:06:25.642Z,5300
2019-02-14T14:07:40.063Z,5164
2019-02-14T14:08:41.742Z,5080
2019-02-14T14:09:49.811Z,5028
2019-02-14T14:10:58.041Z,4956
2019-02-14T14:12:05.924Z,4852
2019-02-14T14:13:14.001Z,4712
2019-02-14T14:14:22.050Z,4544
2019-02-14T14:15:30.104Z,4160
2019-02-14T14:16:38.170Z,4136
2019-02-14T14:17:46.238Z,4172
2019-02-14T14:18:54.296Z,4288
2019-02-14T14:20:02.369Z,4484
2019-02-14T14:21:10.422Z,4500
2019-02-14T14:22:18.483Z,4572
2019-02-14T14:23:26.539Z,4624
2019-02-14T14:24:34.594Z,4684
2019-02-14T14:25:43.074Z,4764
2019-02-14T14:26:50.759Z,4820
2019-02-14T14:27:58.883Z,4864
2019-02-14T14:29:06.864Z,4828
2019-02-14T14:30:14.972Z,4772
2019-02-14T14:31:22.986Z,4668
2019-02-14T14:32:31.033Z,4640
2019-02-14T14:33:39.092Z,4628
2019-02-14T14:34:47.276Z,4532
2019-02-14T14:35:55.215Z,4344
2019-02-14T14:37:03.274Z,4212
2019-02-14T14:38:11.453Z,4052
2019-02-14T14:39:19.390Z,3900
2019-02-14T14:40:27.465Z,3824
2019-02-14T14:41:35.524Z,3844
2019-02-14T14:42:43.593Z,3880
2019-02-14T14:43:51.610Z,3876
2019-02-14T14:44:59.705Z,3872
2019-02-14T14:46:07.768Z,4012
2019-02-14T14:47:15.825Z,4172
2019-02-14T14:48:23.897Z,4432
2019-02-14T14:49:31.922Z,4724
2019-02-14T14:50:40.005Z,5060
2019-02-14T14:51:48.061Z,5272
2019-02-14T14:52:56.114Z,5336
2019-02-14T14:54:04.199Z,5392
2019-02-14T14:55:12.232Z,5264
2019-02-14T14:56:20.313Z,5000
2019-02-14T14:57:28.461Z,4636
2019-02-14T14:58:36.742Z,4376
2019-02-14T14:59:44.493Z,4052
2019-02-14T15:00:52.545Z,3960
2019-02-14T15:02:00.644Z,3808
2019-02-14T15:03:08.717Z,3536
2019-02-14T15:04:16.736Z,3300
2019-02-14T15:05:24.793Z,3136
2019-02-14T15:06:32.873Z,3052
2019-02-14T15:07:40.919Z,3028
2019-02-14T15:08:48.969Z,3008
2019-02-14T15:09:57.664Z,3052
2019-02-14T15:11:05.105Z,3148
2019-02-14T15:12:13.150Z,3288
2019-02-14T15:13:21.251Z,3452
2019-02-14T15:14:29.281Z,3644
2019-02-14T15:15:37.342Z,3860
2019-02-14T15:16:45.407Z,4072
2019-02-14T15:17:53.475Z,4236
2019-02-14T15:19:01.511Z,4400
2019-02-14T15:20:09.583Z,4488
2019-02-14T15:21:17.660Z,4468
2019-02-14T15:22:25.703Z,4340
2019-02-14T15:23:33.784Z,4080
2019-02-14T15:24:41.833Z,3692
2019-02-14T15:25:49.918Z,3272
2019-02-14T15:26:57.961Z,2908
2019-02-14T15:28:06.012Z,2644
2019-02-14T15:29:14.068Z,2476
2019-02-14T15:30:22.411Z,2352
2019-02-14T15:31:30.209Z,2272
2019-02-14T15:32:38.246Z,2224
2019-02-14T15:33:46.309Z,2160
2019-02-14T15:34:54.360Z,2084
2019-02-14T15:36:02.429Z,2068
2019-02-14T15:37:12.624Z,2096
2019-02-14T15:38:18.560Z,2136
2019-02-14T15:39:26.616Z,2236
2019-02-14T15:40:34.677Z,2344
2019-02-14T15:41:42.730Z,2416
2019-02-14T15:42:50.795Z,2436
2019-02-14T15:43:58.859Z,2424
2019-02-14T15:45:06.915Z,2360